createdAt,value
2022-08-23T00:02:28.513Z,99.90
2022-08-23T00:05:09.118Z,99.90
2022-08-23T00:07:39.520Z,99.90
2022-08-23T00:10:10.689Z,99.90
2022-08-23T00:12:40.065Z,99.90
2022-08-23T00:15:12.891Z,99.90
2022-08-23T00:17:43.773Z,99.90
2022-08-23T00:20:17.218Z,99.90
2022-08-23T00:22:46.063Z,99.90
2022-08-23T00:25:15.944Z,99.90
2022-08-23T00:27:44.799Z,99.90
2022-08-23T00:30:16.189Z,99.90
2022-08-23T00:32:48.647Z,99.90
2022-08-23T00:35:26.383Z,99.90
2022-08-23T00:38:33.873Z,99.90
2022-08-23T00:40:48.468Z,99.90
2022-08-23T00:43:38.186Z,99.90
2022-08-23T00:46:52.461Z,99.90
2022-08-23T00:49:23.578Z,99.90
2022-08-23T00:51:58.955Z,99.90
2022-08-23T00:54:31.250Z,99.90
2022-08-23T00:57:05.414Z,99.90
2022-08-23T00:59:34.234Z,99.90
2022-08-23T01:02:05.728Z,99.90
2022-08-23T01:04:42.553Z,99.90
2022-08-23T01:07:23.935Z,99.90
2022-08-23T01:09:56.518Z,99.90
2022-08-23T01:12:36.712Z,99.90
2022-08-23T01:15:16.059Z,99.90
2022-08-23T01:17:51.359Z,99.90
2022-08-23T01:20:26.787Z,99.90
2022-08-23T01:23:01.669Z,99.90
2022-08-23T01:25:34.994Z,99.90
2022-08-23T01:28:03.261Z,99.90
2022-08-23T01:30:35.349Z,99.90
2022-08-23T01:33:08.097Z,99.90
2022-08-23T01:35:41.035Z,99.90
2022-08-23T01:38:12.190Z,99.90
2022-08-23T01:40:43.315Z,99.90
2022-08-23T01:43:12.865Z,99.90
2022-08-23T01:45:41.806Z,99.90
2022-08-23T01:48:10.232Z,99.90
2022-08-23T01:50:39.070Z,99.90
2022-08-23T01:53:08.677Z,99.90
2022-08-23T01:55:37.521Z,99.90
2022-08-23T01:58:08.092Z,99.90
2022-08-23T02:00:40.960Z,99.90
2022-08-23T02:03:12.470Z,99.90
2022-08-23T02:05:42.731Z,99.90
2022-08-23T02:08:28.751Z,99.90
2022-08-23T02:10:57.209Z,99.90
2022-08-23T02:13:27.061Z,99.90
2022-08-23T02:15:55.285Z,99.90
2022-08-23T02:18:23.618Z,99.90
2022-08-23T02:20:53.679Z,99.90
2022-08-23T02:23:23.770Z,99.90
2022-08-23T02:25:52.601Z,99.90
2022-08-23T02:28:21.506Z,99.90
2022-08-23T02:30:52.362Z,99.90
2022-08-23T02:33:20.991Z,99.90
2022-08-23T02:35:50.131Z,99.90
2022-08-23T02:38:19.337Z,99.90
2022-08-23T02:40:48.383Z,99.90
2022-08-23T02:43:21.534Z,99.90
2022-08-23T02:45:52.727Z,99.90
2022-08-23T02:48:22.547Z,99.90
2022-08-23T02:50:50.890Z,99.90
2022-08-23T02:53:19.387Z,99.90
2022-08-23T02:55:48.664Z,99.90
2022-08-23T02:58:16.863Z,99.90
2022-08-23T03:00:48.392Z,99.90
2022-08-23T03:03:19.159Z,99.90
2022-08-23T03:05:51.351Z,99.90
2022-08-23T03:08:20.314Z,99.90
2022-08-23T03:10:52.565Z,99.90
2022-08-23T03:13:22.041Z,99.90
2022-08-23T03:15:50.672Z,99.90
2022-08-23T03:18:20.235Z,99.90
2022-08-23T03:20:48.945Z,99.90
2022-08-23T03:23:17.164Z,99.90
2022-08-23T03:25:45.752Z,99.90
2022-08-23T03:28:14.001Z,99.90
2022-08-23T03:30:43.138Z,99.90
2022-08-23T03:33:11.449Z,99.90
2022-08-23T03:35:41.241Z,99.90
2022-08-23T03:38:10.045Z,99.90
2022-08-23T03:40:38.346Z,99.90
2022-08-23T03:43:06.618Z,99.90
2022-08-23T03:45:34.755Z,99.90
2022-08-23T03:48:03.391Z,99.90
2022-08-23T03:50:31.707Z,99.90
2022-08-23T03:53:01.290Z,99.90
2022-08-23T03:55:29.639Z,99.90
2022-08-23T03:57:58.077Z,99.90
2022-08-23T04:00:26.400Z,99.90
2022-08-23T04:02:54.807Z,99.90
2022-08-23T04:05:22.999Z,99.90
2022-08-23T04:07:51.292Z,99.90
2022-08-23T04:10:21.008Z,99.90
2022-08-23T04:12:49.745Z,99.90
2022-08-23T04:15:18.601Z,99.90
2022-08-23T04:17:46.712Z,99.90
2022-08-23T04:20:15.044Z,99.90
2022-08-23T04:22:45.953Z,99.90
2022-08-23T04:25:34.254Z,99.90
2022-08-23T04:28:06.641Z,99.90
2022-08-23T04:30:34.853Z,99.90
2022-08-23T04:33:04.540Z,99.90
2022-08-23T04:35:39.162Z,99.90
2022-08-23T04:38:24.304Z,99.90
2022-08-23T04:41:11.703Z,99.90
2022-08-23T04:43:41.408Z,99.90
2022-08-23T04:46:10.433Z,99.90
2022-08-23T04:48:38.774Z,99.90
2022-08-23T04:51:07.424Z,99.90
2022-08-23T04:53:36.523Z,99.90
2022-08-23T04:56:06.981Z,99.90
2022-08-23T04:58:38.507Z,99.90
2022-08-23T05:01:12.107Z,99.90
2022-08-23T05:03:41.066Z,99.90
2022-08-23T05:06:09.546Z,99.90
2022-08-23T05:08:38.074Z,99.90
2022-08-23T05:11:09.318Z,99.90
2022-08-23T05:13:39.065Z,99.90
2022-08-23T05:16:10.156Z,99.90
2022-08-23T05:18:38.340Z,99.90
2022-08-23T05:21:07.637Z,99.90
2022-08-23T05:23:35.833Z,99.90
2022-08-23T05:26:04.504Z,99.90
2022-08-23T05:28:35.957Z,99.90
2022-08-23T05:31:11.480Z,99.90
2022-08-23T05:33:41.963Z,99.90
2022-08-23T05:36:13.395Z,99.90
2022-08-23T05:38:42.787Z,99.90
2022-08-23T05:41:12.048Z,99.90
2022-08-23T05:43:41.013Z,99.90
2022-08-23T05:46:13.784Z,99.90
2022-08-23T05:48:47.037Z,99.90
2022-08-23T05:51:19.165Z,99.90
2022-08-23T05:53:48.829Z,99.90
2022-08-23T05:56:24.369Z,99.90
2022-08-23T05:58:59.621Z,99.90
2022-08-23T06:01:31.977Z,99.90
2022-08-23T06:04:01.422Z,99.90
2022-08-23T06:06:37.116Z,99.90
2022-08-23T06:09:09.196Z,99.90
2022-08-23T06:11:38.422Z,99.90
2022-08-23T06:14:09.716Z,99.90
2022-08-23T06:16:46.598Z,99.90
2022-08-23T06:19:16.199Z,99.90
2022-08-23T06:21:45.691Z,99.90
2022-08-23T06:24:14.403Z,99.90
2022-08-23T06:26:45.448Z,99.90
2022-08-23T06:29:17.461Z,99.90
2022-08-23T06:31:51.524Z,99.90
2022-08-23T06:34:23.987Z,99.90
2022-08-23T06:36:55.522Z,99.90
2022-08-23T06:39:28.155Z,99.90
2022-08-23T06:42:02.043Z,99.90
2022-08-23T06:44:32.487Z,99.90
2022-08-23T06:47:02.845Z,99.90
2022-08-23T06:49:31.186Z,99.90
2022-08-23T06:52:04.076Z,99.90
2022-08-23T06:54:35.823Z,99.90
2022-08-23T06:57:05.268Z,99.90
2022-08-23T06:59:33.456Z,99.90
2022-08-23T07:02:06.340Z,99.90
2022-08-23T07:04:38.474Z,99.90
2022-08-23T07:07:11.608Z,99.90
2022-08-23T07:09:41.845Z,99.90
2022-08-23T07:12:10.992Z,99.90
2022-08-23T07:14:39.815Z,99.90
2022-08-23T07:17:10.607Z,99.90
2022-08-23T07:19:38.988Z,99.90
2022-08-23T07:22:07.811Z,99.90
2022-08-23T07:24:36.056Z,99.90
2022-08-23T07:27:09.565Z,99.90
2022-08-23T07:29:39.979Z,99.90
2022-08-23T07:32:10.517Z,99.90
2022-08-23T07:34:38.878Z,99.90
2022-08-23T07:37:11.344Z,99.90
2022-08-23T07:39:44.149Z,99.90
2022-08-23T07:42:23.642Z,99.90
2022-08-23T07:44:53.702Z,99.90
2022-08-23T07:47:23.822Z,99.90
2022-08-23T07:49:52.283Z,99.90
2022-08-23T07:52:20.623Z,99.90
2022-08-23T07:54:49.519Z,99.90
2022-08-23T07:57:18.973Z,99.90
2022-08-23T07:59:48.601Z,99.90
2022-08-23T08:02:16.760Z,99.90
2022-08-23T08:04:46.468Z,99.90
2022-08-23T08:07:20.524Z,99.90
2022-08-23T08:09:49.241Z,99.90
2022-08-23T08:12:17.883Z,99.90
2022-08-23T08:14:48.133Z,99.90
2022-08-23T08:17:17.382Z,99.90
2022-08-23T08:19:48.836Z,99.90
2022-08-23T08:22:17.157Z,99.90
2022-08-23T08:24:45.516Z,99.90
2022-08-23T08:27:13.948Z,99.90
2022-08-23T08:29:43.879Z,99.90
2022-08-23T08:32:13.863Z,99.90
2022-08-23T08:34:43.105Z,99.90
2022-08-23T08:37:12.956Z,99.90
2022-08-23T08:39:45.674Z,99.90
2022-08-23T08:42:40.922Z,99.90
2022-08-23T08:45:17.571Z,99.90
2022-08-23T08:47:51.272Z,99.90
2022-08-23T08:50:26.452Z,99.90
2022-08-23T08:53:03.392Z,99.90
2022-08-23T08:55:38.779Z,99.90
2022-08-23T08:58:17.095Z,99.90
2022-08-23T09:00:47.051Z,99.90
2022-08-23T09:03:21.046Z,99.90
2022-08-23T09:05:58.530Z,99.90
2022-08-23T09:08:48.858Z,99.90
2022-08-23T09:11:36.321Z,99.90
2022-08-23T09:14:38.042Z,99.90
2022-08-23T09:17:16.920Z,99.90
2022-08-23T09:19:50.942Z,99.90
2022-08-23T09:22:38.723Z,99.90
2022-08-23T09:25:11.735Z,99.90
2022-08-23T09:27:42.962Z,99.90
2022-08-23T09:30:15.184Z,99.90
2022-08-23T09:32:48.587Z,99.90
2022-08-23T09:35:20.991Z,1.00
2022-08-23T09:37:58.454Z,99.90
2022-08-23T09:40:39.012Z,99.90
2022-08-23T09:43:15.714Z,99.90
2022-08-23T09:45:59.389Z,1.00
2022-08-23T09:48:40.599Z,1.00
2022-08-23T09:51:19.288Z,99.90
2022-08-23T09:53:52.282Z,1.00
2022-08-23T09:56:29.644Z,1.00
2022-08-23T09:58:58.462Z,1.00
2022-08-23T10:01:29.721Z,1.00
2022-08-23T10:04:14.548Z,1.00
2022-08-23T10:06:46.140Z,1.00
2022-08-23T10:09:27.057Z,1.00
2022-08-23T10:11:58.629Z,1.00
2022-08-23T10:14:33.015Z,1.00
2022-08-23T10:17:15.834Z,1.00
2022-08-23T10:19:53.806Z,1.00
2022-08-23T10:22:26.482Z,1.00
2022-08-23T10:25:07.478Z,1.00
2022-08-23T10:28:06.435Z,1.00
2022-08-23T10:30:49.220Z,1.00
2022-08-23T10:33:25.093Z,1.00
2022-08-23T10:36:08.334Z,1.00
2022-08-23T10:38:46.259Z,1.00
2022-08-23T10:41:38.891Z,1.00
2022-08-23T10:44:25.471Z,1.00
2022-08-23T10:47:27.374Z,1.00
2022-08-23T10:49:59.459Z,1.00
2022-08-23T10:52:35.622Z,99.90
2022-08-23T10:55:24.521Z,99.90
2022-08-23T10:57:54.428Z,99.90
2022-08-23T11:00:29.195Z,1.00
2022-08-23T11:03:10.278Z,15.00
2022-08-23T11:05:40.761Z,99.90
2022-08-23T11:08:12.860Z,1.00
2022-08-23T11:10:53.735Z,1.00
2022-08-23T11:13:30.384Z,1.00
2022-08-23T11:16:07.057Z,1.00
2022-08-23T11:18:44.163Z,1.00
2022-08-23T11:21:47.498Z,99.90
2022-08-23T11:24:49.244Z,99.90
2022-08-23T11:27:31.489Z,1.00
2022-08-23T11:30:38.107Z,99.90
2022-08-23T11:33:21.866Z,99.90
2022-08-23T11:35:54.822Z,1.00
2022-08-23T11:39:06.732Z,98.10
2022-08-23T11:41:37.658Z,99.90
2022-08-23T11:44:34.041Z,99.90
2022-08-23T11:47:06.769Z,1.00
2022-08-23T11:50:02.652Z,99.90
2022-08-23T11:53:17.027Z,25.40
2022-08-23T11:56:46.154Z,99.90
2022-08-23T11:59:41.385Z,99.90
2022-08-23T12:02:36.683Z,99.90
2022-08-23T12:05:22.940Z,46.90
2022-08-23T12:08:20.391Z,1.00
2022-08-23T12:11:11.036Z,1.00
2022-08-23T12:13:58.362Z,2.10
2022-08-23T12:16:45.157Z,99.90
2022-08-23T12:19:38.149Z,1.00
2022-08-23T12:22:14.022Z,1.00
2022-08-23T12:24:47.371Z,1.00
2022-08-23T12:27:33.593Z,99.90
2022-08-23T12:30:11.748Z,51.40
2022-08-23T12:32:55.342Z,1.00
2022-08-23T12:35:41.084Z,99.90
2022-08-23T12:38:22.418Z,88.80
2022-08-23T12:40:54.556Z,1.00
2022-08-23T12:43:28.370Z,99.90
2022-08-23T12:46:00.854Z,99.90
2022-08-23T12:48:33.594Z,1.00
2022-08-23T12:51:08.470Z,1.00
2022-08-23T12:53:44.774Z,99.90
2022-08-23T12:56:22.750Z,1.00
2022-08-23T12:59:07.692Z,1.00
2022-08-23T13:01:41.886Z,1.00
2022-08-23T13:04:15.708Z,99.90
2022-08-23T13:06:49.884Z,1.00
2022-08-23T13:09:24.130Z,1.00
2022-08-23T13:11:53.669Z,1.00
2022-08-23T13:14:34.392Z,1.00
2022-08-23T13:17:19.607Z,99.90
2022-08-23T13:19:50.310Z,99.90
2022-08-23T13:22:26.030Z,1.00
2022-08-23T13:25:27.577Z,1.00
2022-08-23T13:27:58.235Z,1.00
2022-08-23T13:30:30.937Z,99.90
2022-08-23T13:33:21.410Z,99.90
2022-08-23T13:35:52.256Z,99.90
2022-08-23T13:38:26.978Z,18.50
2022-08-23T13:41:01.364Z,1.00
2022-08-23T13:43:36.908Z,1.00
2022-08-23T13:46:18.084Z,1.00
2022-08-23T13:48:58.648Z,1.00
2022-08-23T13:51:37.003Z,99.90
2022-08-23T13:54:11.073Z,1.00
2022-08-23T13:56:50.293Z,1.00
2022-08-23T13:59:31.552Z,99.90
2022-08-23T14:02:06.098Z,1.00
2022-08-23T14:04:34.761Z,99.90
2022-08-23T14:07:03.003Z,99.90
2022-08-23T14:09:31.163Z,99.90
2022-08-23T14:12:03.036Z,99.90
2022-08-23T14:14:35.780Z,99.90
2022-08-23T14:17:06.621Z,99.90
2022-08-23T14:20:32.259Z,99.90
2022-08-23T14:22:28.452Z,99.90
2022-08-23T14:24:56.621Z,99.90
2022-08-23T14:27:24.872Z,99.90
2022-08-23T14:29:54.336Z,99.90
2022-08-23T14:32:24.372Z,99.90
2022-08-23T14:34:53.805Z,99.90
2022-08-23T14:40:13.153Z,99.90
2022-08-23T14:42:41.504Z,99.90
2022-08-23T14:45:10.905Z,99.90
2022-08-23T14:47:40.788Z,99.90
2022-08-23T14:50:13.206Z,99.90
2022-08-23T14:52:45.943Z,99.90
2022-08-23T14:55:15.790Z,99.90
2022-08-23T14:57:48.983Z,99.90
2022-08-23T15:00:18.379Z,99.90
2022-08-23T15:02:50.114Z,99.90
2022-08-23T15:05:19.108Z,99.90
2022-08-23T15:07:47.317Z,99.90
2022-08-23T15:13:28.376Z,1.00
2022-08-23T15:15:54.927Z,1.00
2022-08-23T15:18:25.021Z,18.80
2022-08-23T15:20:53.312Z,99.90
2022-08-23T15:23:21.887Z,99.90
2022-08-23T15:25:50.911Z,1.00
2022-08-23T15:28:22.652Z,1.00
2022-08-23T15:30:52.438Z,1.00
2022-08-23T15:33:27.140Z,1.00
2022-08-23T15:36:01.934Z,1.00
2022-08-23T15:38:32.588Z,11.10
2022-08-23T15:41:00.793Z,99.90
2022-08-23T15:43:34.258Z,1.00
2022-08-23T15:46:07.394Z,26.60
2022-08-23T15:48:42.128Z,99.90
2022-08-23T15:51:12.532Z,1.00
2022-08-23T15:53:41.202Z,99.90
2022-08-23T15:56:14.338Z,99.90
2022-08-23T15:58:43.653Z,99.90
2022-08-23T16:01:12.947Z,99.90
2022-08-23T16:03:43.726Z,1.00
2022-08-23T16:06:14.958Z,1.00
2022-08-23T16:08:50.680Z,1.00
2022-08-23T16:11:19.748Z,1.00
2022-08-23T16:13:51.574Z,1.00
2022-08-23T16:16:29.266Z,99.90
2022-08-23T16:18:59.726Z,99.90
2022-08-23T16:21:31.837Z,99.90
2022-08-23T16:24:00.651Z,99.90
2022-08-23T16:26:35.011Z,1.00
2022-08-23T16:29:07.550Z,1.00
2022-08-23T16:31:38.478Z,1.00
2022-08-23T16:34:11.315Z,1.00
2022-08-23T16:36:45.649Z,99.90
2022-08-23T16:39:16.228Z,1.00
2022-08-23T16:41:44.708Z,99.90
2022-08-23T16:44:13.197Z,1.00
2022-08-23T16:46:44.114Z,35.30
2022-08-23T16:49:13.552Z,1.00
2022-08-23T16:51:47.038Z,1.00
2022-08-23T16:54:15.425Z,1.00
2022-08-23T16:56:44.080Z,99.90
2022-08-23T16:59:14.578Z,1.00
2022-08-23T17:01:50.111Z,1.00
2022-08-23T17:04:20.158Z,8.20
2022-08-23T17:06:52.404Z,99.90
2022-08-23T17:09:21.125Z,24.70
2022-08-23T17:11:49.820Z,99.90
2022-08-23T17:14:18.814Z,1.00
2022-08-23T17:16:47.649Z,1.00
2022-08-23T17:19:16.014Z,1.00
2022-08-23T17:21:44.967Z,1.00
2022-08-23T17:24:14.601Z,99.90
2022-08-23T17:26:43.478Z,1.00
2022-08-23T17:29:12.294Z,1.00
2022-08-23T17:31:40.865Z,1.00
2022-08-23T17:34:09.779Z,1.00
2022-08-23T17:36:42.372Z,1.00
2022-08-23T17:39:22.194Z,1.00
2022-08-23T17:41:50.590Z,99.90
2022-08-23T17:44:20.286Z,63.00
2022-08-23T17:46:49.865Z,1.00
2022-08-23T17:49:19.569Z,1.00
2022-08-23T17:51:48.283Z,99.90
2022-08-23T17:54:18.473Z,99.90
2022-08-23T17:56:50.386Z,99.90
2022-08-23T17:59:19.809Z,99.90
2022-08-23T18:01:49.597Z,99.90
2022-08-23T18:04:18.272Z,99.90
2022-08-23T18:06:47.124Z,1.00
2022-08-23T18:09:17.649Z,1.00
2022-08-23T18:11:48.033Z,1.00
2022-08-23T18:14:16.290Z,1.00
2022-08-23T18:16:45.649Z,1.00
2022-08-23T18:19:14.521Z,1.00
2022-08-23T18:21:45.281Z,1.00
2022-08-23T18:24:14.528Z,1.00
2022-08-23T18:27:02.449Z,1.00
2022-08-23T18:29:33.905Z,1.00
2022-08-23T18:32:05.395Z,1.00
2022-08-23T18:34:34.696Z,1.00
2022-08-23T18:37:04.135Z,1.00
2022-08-23T18:39:32.460Z,1.00
2022-08-23T18:42:03.473Z,1.00
2022-08-23T18:44:32.392Z,1.00
2022-08-23T18:47:02.373Z,1.00
2022-08-23T18:49:32.012Z,1.00
2022-08-23T18:52:00.543Z,1.00
2022-08-23T18:54:33.523Z,1.00
2022-08-23T18:57:04.877Z,1.00
2022-08-23T18:59:33.948Z,1.00
2022-08-23T19:02:02.406Z,1.00
2022-08-23T19:04:31.345Z,1.00
2022-08-23T19:06:59.683Z,1.00
2022-08-23T19:09:27.860Z,1.00
2022-08-23T19:11:56.389Z,1.00
2022-08-23T19:14:25.990Z,1.00
2022-08-23T19:16:55.103Z,1.00
2022-08-23T19:19:24.606Z,1.00
2022-08-23T19:21:52.746Z,1.00
2022-08-23T19:24:20.906Z,1.00
2022-08-23T19:26:49.378Z,1.00
2022-08-23T19:29:20.599Z,1.00
2022-08-23T19:31:50.728Z,1.00
2022-08-23T19:34:22.244Z,1.00
2022-08-23T19:37:00.642Z,1.00
2022-08-23T19:39:30.651Z,1.00
2022-08-23T19:41:59.210Z,1.00
2022-08-23T19:44:28.103Z,1.00
2022-08-23T19:46:58.000Z,99.90
2022-08-23T19:49:26.237Z,99.90
2022-08-23T19:51:55.319Z,99.90
2022-08-23T19:54:27.217Z,99.90
2022-08-23T19:56:58.495Z,99.90
2022-08-23T19:59:30.505Z,99.90
2022-08-23T20:02:00.781Z,99.90
2022-08-23T20:04:31.565Z,99.90
2022-08-23T20:07:02.207Z,99.90
2022-08-23T20:09:32.472Z,99.90
2022-08-23T20:12:02.242Z,99.90
2022-08-23T20:14:33.171Z,99.90
2022-08-23T20:17:06.572Z,99.90
2022-08-23T20:19:35.342Z,99.90
2022-08-23T20:22:22.693Z,99.90
2022-08-23T20:24:52.721Z,99.90
2022-08-23T20:27:30.917Z,99.90
2022-08-23T20:30:01.257Z,99.90
2022-08-23T20:32:31.503Z,99.90
2022-08-23T20:35:00.448Z,99.90
2022-08-23T20:37:28.894Z,99.90
2022-08-23T20:39:57.091Z,99.90
2022-08-23T20:42:25.501Z,99.90
2022-08-23T20:44:53.882Z,99.90
2022-08-23T20:47:22.271Z,99.90
2022-08-23T20:49:51.889Z,99.90
2022-08-23T20:52:20.097Z,99.90
2022-08-23T20:54:48.374Z,99.90
2022-08-23T20:57:16.812Z,99.90
2022-08-23T20:59:45.389Z,99.90
2022-08-23T21:02:13.961Z,99.90
2022-08-23T21:04:42.249Z,99.90
2022-08-23T21:07:11.914Z,99.90
2022-08-23T21:09:40.349Z,99.90
2022-08-23T21:12:09.041Z,99.90
2022-08-23T21:14:37.379Z,99.90
2022-08-23T21:17:05.792Z,99.90
2022-08-23T21:19:34.125Z,99.90
2022-08-23T21:22:02.257Z,99.90
2022-08-23T21:24:32.995Z,99.90
2022-08-23T21:27:01.176Z,99.90
2022-08-23T21:29:29.509Z,99.90
2022-08-23T21:31:57.707Z,99.90
2022-08-23T21:34:26.143Z,99.90
2022-08-23T21:36:54.644Z,99.90
2022-08-23T21:39:22.827Z,99.90
2022-08-23T21:41:55.715Z,99.90
2022-08-23T21:44:25.240Z,99.90
2022-08-23T21:46:53.906Z,99.90
2022-08-23T21:49:23.132Z,99.90
2022-08-23T21:51:52.801Z,99.90
2022-08-23T21:54:21.235Z,99.90
2022-08-23T21:56:51.080Z,99.90
2022-08-23T21:59:21.465Z,99.90
2022-08-23T22:01:50.703Z,99.90
2022-08-23T22:04:19.454Z,99.90
2022-08-23T22:06:48.409Z,99.90
2022-08-23T22:09:19.598Z,99.90
2022-08-23T22:11:54.877Z,99.90
2022-08-23T22:14:31.194Z,99.90
2022-08-23T22:17:00.082Z,99.90
2022-08-23T22:19:28.690Z,99.90
2022-08-23T22:21:56.814Z,99.90
2022-08-23T22:24:26.331Z,99.90
2022-08-23T22:26:55.548Z,99.90
2022-08-23T22:29:25.768Z,99.90
2022-08-23T22:31:54.953Z,99.90
2022-08-23T22:34:23.097Z,99.90
2022-08-23T22:36:52.065Z,99.90
2022-08-23T22:39:21.927Z,99.90
2022-08-23T22:41:50.965Z,99.90
2022-08-23T22:44:19.462Z,99.90
2022-08-23T22:46:48.992Z,99.90
2022-08-23T22:49:17.511Z,99.90
2022-08-23T22:51:45.752Z,99.90
2022-08-23T22:54:17.511Z,99.90
2022-08-23T22:56:48.798Z,99.90
2022-08-23T22:59:19.762Z,99.90
2022-08-23T23:01:52.635Z,99.90
2022-08-23T23:04:25.242Z,99.90
2022-08-23T23:06:55.721Z,99.90
2022-08-23T23:09:24.080Z,99.90
2022-08-23T23:11:53.071Z,99.90
2022-08-23T23:14:23.158Z,99.90
2022-08-23T23:16:53.294Z,99.90
2022-08-23T23:19:45.809Z,99.90
2022-08-23T23:22:14.942Z,99.90
2022-08-23T23:24:43.282Z,99.90
2022-08-23T23:27:11.573Z,99.90
2022-08-23T23:29:39.890Z,99.90
2022-08-23T23:32:09.428Z,99.90
2022-08-23T23:34:38.066Z,99.90
2022-08-23T23:37:06.652Z,99.90
2022-08-23T23:39:35.121Z,99.90
2022-08-23T23:42:03.310Z,99.90
2022-08-23T23:44:32.094Z,99.90
2022-08-23T23:47:01.540Z,99.90
2022-08-23T23:49:33.665Z,99.90
2022-08-23T23:52:04.878Z,99.90
2022-08-23T23:54:35.637Z,99.90
2022-08-23T23:57:05.061Z,99.90
2022-08-23T23:59:33.555Z,99.90
